Map

Track Data

SID SEASON NUMBER BASIN SUBBASIN NAME ISO_TIME NATURE LAT LON WMO_WIND WMO_PRES WMO_AGENCY TRACK_TYPE DIST2LAND LANDFALL IFLAG USA_AGENCY USA_ATCF_ID USA_LAT USA_LON USA_RECORD USA_STATUS USA_WIND USA_PRES USA_SSHS USA_R34_NE USA_R34_SE USA_R34_SW USA_R34_NW USA_R50_NE USA_R50_SE USA_R50_SW USA_R50_NW USA_R64_NE USA_R64_SE USA_R64_SW USA_R64_NW USA_POCI USA_ROCI USA_RMW USA_EYE TOKYO_LAT TOKYO_LON TOKYO_GRADE TOKYO_WIND TOKYO_PRES TOKYO_R50_DIR TOKYO_R50_LONG TOKYO_R50_SHORT TOKYO_R30_DIR TOKYO_R30_LONG TOKYO_R30_SHORT TOKYO_LAND CMA_LAT CMA_LON CMA_CAT CMA_WIND CMA_PRES HKO_LAT HKO_LON HKO_CAT HKO_WIND HKO_PRES NEWDELHI_LAT NEWDELHI_LON NEWDELHI_GRADE NEWDELHI_WIND NEWDELHI_PRES NEWDELHI_CI NEWDELHI_DP NEWDELHI_POCI REUNION_LAT REUNION_LON REUNION_TYPE REUNION_WIND REUNION_PRES REUNION_TNUM REUNION_CI REUNION_RMW REUNION_R34_NE REUNION_R34_SE REUNION_R34_SW REUNION_R34_NW REUNION_R50_NE REUNION_R50_SE REUNION_R50_SW REUNION_R50_NW REUNION_R64_NE REUNION_R64_SE REUNION_R64_SW REUNION_R64_NW BOM_LAT BOM_LON BOM_TYPE BOM_WIND BOM_PRES BOM_TNUM BOM_CI BOM_RMW BOM_R34_NE BOM_R34_SE BOM_R34_SW BOM_R34_NW BOM_R50_NE BOM_R50_SE BOM_R50_SW BOM_R50_NW BOM_R64_NE BOM_R64_SE BOM_R64_SW BOM_R64_NW BOM_ROCI BOM_POCI BOM_EYE BOM_POS_METHOD BOM_PRES_METHOD NADI_LAT NADI_LON NADI_CAT NADI_WIND NADI_PRES WELLINGTON_LAT WELLINGTON_LON WELLINGTON_WIND WELLINGTON_PRES DS824_LAT DS824_LON DS824_STAGE DS824_WIND DS824_PRES TD9636_LAT TD9636_LON TD9636_STAGE TD9636_WIND TD9636_PRES TD9635_LAT TD9635_LON TD9635_WIND TD9635_PRES TD9635_ROCI NEUMANN_LAT NEUMANN_LON NEUMANN_CLASS NEUMANN_WIND NEUMANN_PRES MLC_LAT MLC_LON MLC_CLASS MLC_WIND MLC_PRES USA_GUST BOM_GUST BOM_GUST_PER REUNION_GUST REUNION_GUST_PER USA_SEAHGT USA_SEARAD_NE USA_SEARAD_SE USA_SEARAD_SW USA_SEARAD_NW STORM_SPEED STORM_DIR
1996227N15176 1996 65 WP MM ORSON 1996-08-14 00:00:00 NR 14.8000 176.300 main 2643 2643 O_____________ jtwc_wp WP191996 14.8000 176.300 15 -1 9 268
1996227N15176 1996 65 WP MM ORSON 1996-08-14 03:00:00 NR 14.7877 175.857 main 2683 2683 P_____________ WP191996 14.7877 175.857 15 -1 9 270
1996227N15176 1996 65 WP MM ORSON 1996-08-14 06:00:00 NR 14.8000 175.400 main 2733 2733 O_____________ jtwc_wp WP191996 14.8000 175.400 15 -1 9 274
1996227N15176 1996 65 WP MM ORSON 1996-08-14 09:00:00 NR 14.8497 174.903 main 2784 2780 P_____________ WP191996 14.8497 174.903 15 -1 11 275
1996227N15176 1996 65 WP MM ORSON 1996-08-14 12:00:00 NR 14.9000 174.300 main 2840 2840 O_____________ jtwc_wp WP191996 14.9000 174.300 15 -1 13 272
1996227N15176 1996 65 WP MM ORSON 1996-08-14 15:00:00 NR 14.9001 173.537 main 2921 2921 P_____________ WP191996 14.9001 173.537 15 -1 15 270
1996227N15176 1996 65 WP MM ORSON 1996-08-14 18:00:00 NR 14.9000 172.700 main 2921 2883 O_____________ jtwc_wp WP191996 14.9000 172.700 15 -1 16 272
1996227N15176 1996 65 WP MM ORSON 1996-08-14 21:00:00 NR 14.9423 171.893 main 2883 2857 P_____________ WP191996 14.9423 171.893 15 -1 16 274
1996227N15176 1996 65 WP MM ORSON 1996-08-15 00:00:00 NR 15.0000 171.100 main 2857 2827 O_____________ jtwc_wp WP191996 15.0000 171.100 15 -1 15 274
1996227N15176 1996 65 WP MM ORSON 1996-08-15 03:00:00 NR 15.0496 170.350 main 2823 2805 P_____________ WP191996 15.0496 170.350 15 -1 15 274
1996227N15176 1996 65 WP MM ORSON 1996-08-15 06:00:00 NR 15.1000 169.600 main 2805 2771 O_____________ jtwc_wp WP191996 15.1000 169.600 15 -1 15 274
1996227N15176 1996 65 WP MM ORSON 1996-08-15 09:00:00 NR 15.1498 168.807 main 2764 2717 P_____________ WP191996 15.1498 168.807 15 -1 15 274
1996227N15176 1996 65 WP MM ORSON 1996-08-15 12:00:00 NR 15.2000 168.000 main 2717 2664 O_____________ jtwc_wp WP191996 15.2000 168.000 15 -1 16 274
1996227N15176 1996 65 WP MM ORSON 1996-08-15 15:00:00 NR 15.2497 167.200 main 2664 2618 P_____________ WP191996 15.2497 167.200 17 -1 15 274
1996227N15176 1996 65 WP MM ORSON 1996-08-15 18:00:00 NR 15.3000 166.400 main 2618 2572 O_____________ jtwc_wp WP191996 15.3000 166.400 20 -1 15 274
1996227N15176 1996 65 WP MM ORSON 1996-08-15 21:00:00 NR 15.3495 165.615 main 2566 2525 P_____________ WP191996 15.3495 165.615 20 -1 15 274
1996227N15176 1996 65 WP MM ORSON 1996-08-16 00:00:00 NR 15.4000 164.800 main 2525 2477 O_____________ jtwc_wp WP191996 15.4000 164.800 20 -1 16 274
1996227N15176 1996 65 WP MM ORSON 1996-08-16 03:00:00 NR 15.4497 163.922 main 2471 2434 P_____________ WP191996 15.4497 163.922 20 -1 17 273
1996227N15176 1996 65 WP MM ORSON 1996-08-16 06:00:00 NR 15.5000 163.000 main 2428 2384 O_____________ jtwc_wp WP191996 15.5000 163.000 20 -1 18 273
1996227N15176 1996 65 WP MM ORSON 1996-08-16 09:00:00 NR 15.5573 162.050 main 2388 2341 P_____________ WP191996 15.5573 162.050 20 -1 18 273
1996227N15176 1996 65 WP MM ORSON 1996-08-16 12:00:00 NR 15.6000 161.100 main 2336 2291 O_____________ jtwc_wp WP191996 15.6000 161.100 20 -1 18 272
1996227N15176 1996 65 WP MM ORSON 1996-08-16 15:00:00 NR 15.6220 160.193 main 2291 2253 P_____________ WP191996 15.6220 160.193 20 -1 17 270
1996227N15176 1996 65 WP MM ORSON 1996-08-16 18:00:00 NR 15.6000 159.300 main 2248 2199 O_____________ jtwc_wp WP191996 15.6000 159.300 20 -1 17 266
1996227N15176 1996 65 WP MM ORSON 1996-08-16 21:00:00 NR 15.5148 158.385 main 2199 2154 P_____________ WP191996 15.5148 158.385 20 -1 17 263
1996227N15176 1996 65 WP MM ORSON 1996-08-17 00:00:00 NR 15.4000 157.500 main 2154 2115 O_____________ jtwc_wp WP191996 15.4000 157.500 20 -1 16 262
1996227N15176 1996 65 WP MM ORSON 1996-08-17 03:00:00 NR 15.2994 156.700 main 2115 2079 P_____________ WP191996 15.2994 156.700 20 -1 16 263
1996227N15176 1996 65 WP MM ORSON 1996-08-17 06:00:00 NR 15.2000 155.900 main 2079 2047 O_____________ jtwc_wp WP191996 15.2000 155.900 20 -1 16 262
1996227N15176 1996 65 WP MM ORSON 1996-08-17 09:00:00 NR 15.0848 155.015 main 2044 2015 P_____________ WP191996 15.0848 155.015 20 -1 18 263
1996227N15176 1996 65 WP MM ORSON 1996-08-17 12:00:00 NR 15.0000 154.100 main 2014 1999 O_____________ jtwc_wp WP191996 15.0000 154.100 20 -1 18 266
1996227N15176 1996 65 WP MM ORSON 1996-08-17 15:00:00 NR 14.9771 153.200 main 1999 1989 P_____________ WP191996 14.9771 153.200 20 -1 17 270
1996227N15176 1996 65 WP MM ORSON 1996-08-17 18:00:00 NR 15.0000 152.300 main 1988 1965 O_____________ jtwc_wp WP191996 15.0000 152.300 20 -1 18 272
1996227N15176 1996 65 WP MM ORSON 1996-08-17 21:00:00 NR 15.0425 151.363 main 1965 1956 P_____________ WP191996 15.0425 151.363 20 -1 17 273
1996227N15176 1996 65 WP MM ORSON 1996-08-18 00:00:00 NR 15.1000 150.500 main 1956 1944 O_____________ jtwc_wp WP191996 15.1000 150.500 20 -1 15 274
1996227N15176 1996 65 WP MM ORSON 1996-08-18 03:00:00 NR 15.1419 149.812 main 1944 1943 P_____________ WP191996 15.1419 149.812 20 -1 13 275
1996227N15176 1996 65 WP MM ORSON 1996-08-18 06:00:00 NR 15.2000 149.200 main 1948 1944 O_____________ jtwc_wp WP191996 15.2000 149.200 20 -1 12 277
1996227N15176 1996 65 WP MM ORSON 1996-08-18 09:00:00 NR 15.2923 148.550 main 1953 1951 P_____________ WP191996 15.2923 148.550 20 -1 13 279
1996227N15176 1996 65 WP MM ORSON 1996-08-18 12:00:00 NR 15.4000 147.900 main 1961 1960 O_____________ jtwc_wp WP191996 15.4000 147.900 20 -1 13 279
1996227N15176 1996 65 WP MM ORSON 1996-08-18 15:00:00 NR 15.4848 147.250 main 1971 1971 P_____________ WP191996 15.4848 147.250 20 -1 13 279
1996227N15176 1996 65 WP MM ORSON 1996-08-18 18:00:00 NR 15.6000 146.600 main 1982 1982 O_____________ jtwc_wp WP191996 15.6000 146.600 20 -1 13 283
1996227N15176 1996 65 WP MM ORSON 1996-08-18 21:00:00 NR 15.7700 145.927 main 2006 2006 P_____________ WP191996 15.7700 145.927 20 -1 13 288
1996227N15176 1996 65 WP MM ORSON 1996-08-19 00:00:00 NR 16.0000 145.300 main 2032 2032 O_____________ jtwc_wp WP191996 16.0000 145.300 20 -1 12 294
1996227N15176 1996 65 WP MM ORSON 1996-08-19 03:00:00 NR 16.2699 144.740 main 2071 2060 P_____________ WP191996 16.2699 144.740 20 -1 11 302
1996227N15176 1996 65 WP MM ORSON 1996-08-19 06:00:00 NR 16.6000 144.300 main 2060 2007 O_____________ jtwc_wp WP191996 16.6000 144.300 20 -1 10 316
1996227N15176 1996 65 WP MM ORSON 1996-08-19 09:00:00 NR 17.0148 143.990 main 2007 1957 P_____________ WP191996 17.0148 143.990 20 -1 9 329
1996227N15176 1996 65 WP MM ORSON 1996-08-19 12:00:00 NR 17.4000 143.800 main 1957 1932 O_____________ jtwc_wp WP191996 17.4000 143.800 20 -1 7 334
1996227N15176 1996 65 WP MM ORSON 1996-08-19 15:00:00 NR 17.6299 143.677 main 1932 1908 P_____________ WP191996 17.6299 143.677 20 -1 4 335
1996227N15176 1996 65 WP MM ORSON 1996-08-19 18:00:00 NR 17.8000 143.600 main 1908 1883 O_____________ jtwc_wp WP191996 17.8000 143.600 20 -1 4 336
1996227N15176 1996 65 WP MM ORSON 1996-08-19 21:00:00 NR 18.0000 143.500 main 1883 1858 P_____________ WP191996 18.0000 143.500 20 -1 4 335
1996227N15176 1996 65 WP MM ORSON 1996-08-20 00:00:00 NR 18.2000 143.400 main 1858 1833 O_____________ jtwc_wp WP191996 18.2000 143.400 20 -1 4 335
1996227N15176 1996 65 WP MM ORSON 1996-08-20 03:00:00 NR 18.4000 143.300 main 1833 1809 P_____________ WP191996 18.4000 143.300 17 -1 4 335
1996227N15176 1996 65 WP MM ORSON 1996-08-20 06:00:00 NR 18.6000 143.200 main 1809 1784 O_____________ jtwc_wp WP191996 18.6000 143.200 15 -1 4 333
1996227N15176 1996 65 WP MM ORSON 1996-08-20 09:00:00 NR 18.7775 143.100 main 1784 1759 P_____________ WP191996 18.7775 143.100 15 -1 4 335
1996227N15176 1996 65 WP MM ORSON 1996-08-20 12:00:00 NR 19.0000 143.000 main 1759 1724 O_____________ jtwc_wp WP191996 19.0000 143.000 15 -1 6 340
1996227N15176 1996 65 WP MM ORSON 1996-08-20 15:00:00 NR 19.3200 142.893 main 1724 1693 P_____________ WP191996 19.3200 142.893 17 -1 7 348
1996227N15176 1996 65 WP MM ORSON 1996-08-20 18:00:00 TS 19.6400 142.860 1006 tokyo main 1693 1648 OO____________ jtwc_wp WP191996 19.7000 142.800 20 -1 19.4000 143.100 2 1006 0 0 0 7 353
1996227N15176 1996 65 WP MM ORSON 1996-08-20 21:00:00 TS 20.0017 142.812 main 1648 1607 PP____________ WP191996 20.0925 142.728 20 -1 19.8200 142.980 2 1007 0 0 7 354
1996227N15176 1996 65 WP MM ORSON 1996-08-21 00:00:00 TS 20.3714 142.786 1008 tokyo main 1607 1577 OO____________ jtwc_wp WP191996 20.5000 142.700 20 -1 20.2000 142.900 2 1008 0 0 0 7 1
1996227N15176 1996 65 WP MM ORSON 1996-08-21 03:00:00 TS 20.7225 142.814 main 1577 1546 PP____________ WP191996 20.9300 142.742 20 -1 20.5150 142.885 2 1007 0 0 7 5
1996227N15176 1996 65 WP MM ORSON 1996-08-21 06:00:00 TS 21.0500 142.850 1006 tokyo main 1540 1520 OO____________ jtwc_wp WP191996 21.3000 142.800 20 -1 20.8000 142.900 2 1006 0 0 0 6 4
1996227N15176 1996 65 WP MM ORSON 1996-08-21 09:00:00 TS 21.3300 142.854 main 1520 1500 PP____________ WP191996 21.5450 142.808 20 -1 21.1150 142.900 2 1006 0 0 5 2
1996227N15176 1996 65 WP MM ORSON 1996-08-21 12:00:00 TS 21.5500 142.850 1006 tokyo main 1490 1476 OO____________ jtwc_wp WP191996 21.7000 142.800 20 -1 21.4000 142.900 2 1006 0 0 0 4 357
1996227N15176 1996 65 WP MM ORSON 1996-08-21 15:00:00 TS 21.7150 142.850 main 1480 1466 PP____________ WP191996 21.8075 142.800 22 -1 21.6225 142.900 2 1006 0 0 3 0
1996227N15176 1996 65 WP MM ORSON 1996-08-21 18:00:00 TS 21.8500 142.850 1006 tokyo main 1460 1450 OO____________ jtwc_wp WP191996 21.9000 142.800 25 -1 21.8000 142.900 2 1006 0 0 0 3 5
1996227N15176 1996 65 WP MM ORSON 1996-08-21 21:00:00 TS 21.9963 142.854 main 1450 1440 PP____________ WP191996 22.0425 142.807 27 -1 21.9500 142.900 2 1006 0 0 3 0
1996227N15176 1996 65 WP MM ORSON 1996-08-22 00:00:00 TS 22.1444 142.856 1006 tokyo main 1440 1416 OO_O__________ jtwc_wp WP191996 22.2000 142.800 30 -1 22.1000 142.900 2 1006 0 0 0 22.1000 142.900 TD 25 1004 3 355
1996227N15176 1996 65 WP MM ORSON 1996-08-22 03:00:00 TS 22.3040 142.838 main 1416 1396 PP_P__________ WP191996 22.3425 142.758 30 -1 22.2925 142.907 2 1005 0 0 22.2500 142.860 TD 25 1004 3 350
1996227N15176 1996 65 WP MM ORSON 1996-08-22 06:00:00 TS 22.4727 142.800 1004 tokyo main 1396 1381 OO_O__________ jtwc_wp WP191996 22.5000 142.700 30 -1 22.5000 142.900 2 1004 0 0 0 22.4000 142.800 TD 25 1004 4 346
1996227N15176 1996 65 WP MM ORSON 1996-08-22 09:00:00 TS 22.6575 142.741 main 1371 1361 PP_P__________ WP191996 22.7000 142.643 32 -1 22.7225 142.873 2 1004 0 0 22.5500 142.708 TD 25 1004 4 341
1996227N15176 1996 65 WP MM ORSON 1996-08-22 12:00:00 TS 22.8333 142.667 1004 tokyo main 1361 1347 OO_O__________ jtwc_wp WP191996 22.9000 142.600 35 0 22.9000 142.800 2 1004 0 0 0 22.7000 142.600 TD 25 1004 3 334
1996227N15176 1996 65 WP MM ORSON 1996-08-22 15:00:00 TS 22.9550 142.583 main 1337 1322 PP_P__________ WP191996 23.0650 142.592 37 0 22.9575 142.657 2 1003 0 0 22.8425 142.500 TD 27 1002 3 326
1996227N15176 1996 65 WP MM ORSON 1996-08-22 18:00:00 TS 23.0615 142.500 1002 tokyo main 1322 1308 OOOO__________ jtwc_wp WP191996 23.2000 142.600 40 0 23.0000 142.500 2 1002 0 0 0 23.0000 142.500 1 29 1002 23.0000 142.400 TD 30 1000 3 331
1996227N15176 1996 65 WP MM ORSON 1996-08-22 21:00:00 TS 23.2064 142.427 main 1308 1298 PPPP__________ WP191996 23.3150 142.600 42 0 23.1350 142.400 2 1001 0 0 23.1300 142.417 1 29 1001 23.2075 142.285 TD 32 999 3 335
1996227N15176 1996 65 WP MM ORSON 1996-08-23 00:00:00 TS 23.3533 142.353 35 1000 tokyo main 1288 1273 OOOO__________ jtwc_wp WP191996 23.4000 142.600 45 0 23.3000 142.300 3 35 1000 0 9 90 90 0 23.3000 142.300 1 29 1000 23.4000 142.200 TS 35 998 3 331
1996227N15176 1996 65 WP MM ORSON 1996-08-23 03:00:00 TS 23.4881 142.258 main 1273 1259 PPPP__________ WP191996 23.4500 142.593 50 0 23.4650 142.128 3 35 999 0 9 90 90 23.5225 142.135 1 29 1000 23.5150 142.177 TS 35 998 3 330
1996227N15176 1996 65 WP MM ORSON 1996-08-23 06:00:00 TS 23.6000 142.200 35 998 tokyo main 1259 1249 OOOO__________ jtwc_wp WP191996 23.5000 142.600 55 0 23.6000 142.000 3 35 998 0 9 90 90 0 23.7000 142.000 1 29 1000 23.6000 142.200 TS 35 998 2 345
1996227N15176 1996 65 WP MM ORSON 1996-08-23 09:00:00 TS 23.6718 142.206 main 1249 1249 PPPP__________ WP191996 23.6000 142.642 55 0 23.6725 142.005 3 35 998 0 9 90 90 23.7149 141.947 1 31 999 23.7000 142.228 TS 35 998 1 29
1996227N15176 1996 65 WP MM ORSON 1996-08-23 12:00:00 TS 23.7250 142.275 35 998 tokyo main 1254 1244 OOOO__________ jtwc_wp WP191996 23.7000 142.700 55 0 23.7000 142.100 3 35 998 0 9 90 90 0 23.7000 142.000 2 34 998 23.8000 142.300 TS 35 998 2 54
1996227N15176 1996 65 WP MM ORSON 1996-08-23 15:00:00 TS 23.7856 142.377 main 1249 1249 PPPP__________ WP191996 23.7499 142.720 55 0 23.6924 142.213 3 35 997 0 9 90 90 23.7925 142.155 2 36 996 23.9075 142.420 TS 37 997 3 63
1996227N15176 1996 65 WP MM ORSON 1996-08-23 18:00:00 TS 23.8500 142.550 35 996 tokyo main 1249 1249 OOOO__________ jtwc_wp WP191996 23.8000 142.800 55 0 23.7000 142.400 3 35 996 0 9 90 90 0 23.9000 142.400 2 38 995 24.0000 142.600 TS 40 996 4 71
1996227N15176 1996 65 WP MM ORSON 1996-08-23 21:00:00 TS 23.9175 142.791 main 1255 1247 PPPP__________ WP191996 23.9000 143.005 55 0 23.7775 142.670 3 40 993 0 9 95 95 23.9425 142.678 2 41 992 24.0499 142.813 TS 42 993 5 73
1996227N15176 1996 65 WP MM ORSON 1996-08-24 00:00:00 TS 24.0000 143.100 45 990 tokyo main 1253 1246 OOOO__________ jtwc_wp WP191996 24.0000 143.300 55 0 23.9000 143.000 3 45 990 0 9 100 100 0 24.0000 143.000 2 44 990 24.1000 143.100 TS 45 990 6 71
1996227N15176 1996 65 WP MM ORSON 1996-08-24 03:00:00 TS 24.1199 143.442 main 1251 1243 PPPP__________ WP191996 24.0575 143.635 60 0 24.0574 143.327 3 47 987 0 9 110 110 24.1574 143.327 2 46 987 24.2075 143.477 TS 47 987 7 71
1996227N15176 1996 65 WP MM ORSON 1996-08-24 06:00:00 TS 24.2250 143.825 50 985 tokyo main 1251 1247 OOOO__________ jtwc_wp WP191996 24.1000 144.000 65 1 24.2000 143.700 4 50 985 0 9 120 120 0 24.3000 143.700 3 48 985 24.3000 143.900 STS 50 985 7 78
1996227N15176 1996 65 WP MM ORSON 1996-08-24 09:00:00 TS 24.2668 144.232 main 1253 1253 PPPP__________ WP191996 24.1574 144.342 70 1 24.2725 144.135 4 52 982 0 9 135 135 24.3226 144.150 3 53 982 24.3149 144.300 STS 52 982 8 86
1996227N15176 1996 65 WP MM ORSON 1996-08-24 12:00:00 TS 24.2750 144.650 55 980 tokyo main 1270 1266 OOOO__________ jtwc_wp WP191996 24.2000 144.700 75 1 24.3000 144.600 4 55 980 9 30 30 9 150 150 0 24.3000 144.600 3 58 980 24.3000 144.700 STS 55 980 7 90
1996227N15176 1996 65 WP MM ORSON 1996-08-24 15:00:00 TS 24.2728 145.033 main 1280 1280 PPPP__________ WP191996 24.1923 145.078 77 1 24.2998 145.043 4 57 977 9 40 40 9 160 160 24.2994 144.920 3 58 977 24.2998 145.093 STS 57 977 7 90
1996227N15176 1996 65 WP MM ORSON 1996-08-24 18:00:00 TS 24.2750 145.450 60 975 tokyo main 1300 1300 OOOO__________ jtwc_wp WP191996 24.2000 145.500 80 1 24.3000 145.500 4 60 975 9 50 50 9 170 170 0 24.3000 145.300 3 58 975 24.3000 145.500 STS 60 975 9 89
1996227N15176 1996 65 WP MM ORSON 1996-08-24 21:00:00 TS 24.2902 145.971 main 1320 1320 PPPP__________ WP191996 24.2776 146.000 90 2 24.3275 146.000 4 65 970 9 60 60 9 175 175 24.2706 145.943 3 63 970 24.2849 145.943 STS 62 972 10 86
1996227N15176 1996 65 WP MM ORSON 1996-08-25 00:00:00 TS 24.3500 146.500 70 965 tokyo main 1332 1332 OOOO__________ jtwc_wp WP191996 24.4000 146.500 100 3 24.4000 146.500 5 70 965 9 70 70 9 180 180 0 24.3000 146.600 4 68 965 24.3000 146.400 T 65 970 9 77
1996227N15176 1996 65 WP MM ORSON 1996-08-25 03:00:00 TS 24.4885 146.946 main 1341 1341 PPPP__________ WP191996 24.5497 146.908 107 3 24.5424 146.972 5 72 962 9 75 75 9 180 180 24.4846 147.045 4 72 962 24.3774 146.857 T 67 967 8 69
1996227N15176 1996 65 WP MM ORSON 1996-08-25 06:00:00 TS 24.6500 147.350 75 960 tokyo main 1347 1347 OOOO__________ jtwc_wp WP191996 24.7000 147.300 115 4 24.7000 147.400 5 75 960 9 80 80 9 180 180 0 24.7000 147.400 4 77 960 24.5000 147.300 T 70 965 8 69
1996227N15176 1996 65 WP MM ORSON 1996-08-25 09:00:00 TS 24.7642 147.743 main 1353 1353 PPPP__________ WP191996 24.8001 147.758 115 4 24.8072 147.758 5 75 957 9 85 85 9 190 190 24.8073 147.750 4 77 960 24.6423 147.708 T 72 962 7 72
1996227N15176 1996 65 WP MM ORSON 1996-08-25 12:00:00 TS 24.8750 148.125 75 955 tokyo main 1365 1365 OOOO__________ jtwc_wp WP191996 24.9000 148.200 115 4 24.9000 148.100 5 75 955 9 90 90 9 200 200 0 24.9000 148.100 4 77 960 24.8000 148.100 T 75 960 7 71
1996227N15176 1996 65 WP MM ORSON 1996-08-25 15:00:00 TS 25.0049 148.518 main 1377 1373 PPPP__________ WP191996 25.0423 148.565 115 4 24.9850 148.500 5 75 955 9 90 90 9 200 200 25.0425 148.500 4 77 960 24.9499 148.508 T 75 960 8 69
1996227N15176 1996 65 WP MM ORSON 1996-08-25 18:00:00 TS 25.1500 148.900 75 955 tokyo main 1380 1380 OOOO__________ jtwc_wp WP191996 25.2000 148.900 115 4 25.1000 148.900 5 75 955 9 90 90 9 200 200 0 25.2000 148.900 4 77 960 25.1000 148.900 T 75 960 7 66
1996227N15176 1996 65 WP MM ORSON 1996-08-25 21:00:00 TS 25.3106 149.267 main 1394 1391 PPPP__________ WP191996 25.3500 149.258 115 4 25.2925 149.272 5 75 955 9 90 90 9 200 200 25.3500 149.273 4 77 960 25.2499 149.265 T 75 960 7 63
1996227N15176 1996 65 WP MM ORSON 1996-08-26 00:00:00 TS 25.4750 149.600 75 955 tokyo main 1394 1394 OOOO__________ jtwc_wp WP191996 25.5000 149.600 115 4 25.5000 149.600 5 75 955 9 90 90 9 200 200 0 25.5000 149.600 4 77 960 25.4000 149.600 T 75 960 6 61
1996227N15176 1996 65 WP MM ORSON 1996-08-26 03:00:00 TS 25.6287 149.892 main 1403 1395 PPPP__________ WP191996 25.6575 149.923 112 3 25.6574 149.865 5 75 955 9 90 90 9 200 200 25.6499 149.865 4 77 960 25.5499 149.915 T 75 960 6 59
1996227N15176 1996 65 WP MM ORSON 1996-08-26 06:00:00 TS 25.7750 150.150 75 955 tokyo main 1405 1398 OOOO__________ jtwc_wp WP191996 25.8000 150.200 110 3 25.8000 150.100 5 75 955 9 90 90 9 200 200 0 25.8000 150.100 4 77 960 25.7000 150.200 T 75 960 5 58
1996227N15176 1996 65 WP MM ORSON 1996-08-26 09:00:00 TS 25.9200 150.401 main 1409 1407 PPPP__________ WP191996 25.9074 150.423 107 3 25.9650 150.357 5 75 955 9 95 95 9 200 200 25.9575 150.357 4 77 960 25.8500 150.465 T 75 960 5 57
1996227N15176 1996 65 WP MM ORSON 1996-08-26 12:00:00 TS 26.0500 150.625 75 955 tokyo main 1405 1405 OOOO__________ jtwc_wp WP191996 26.0000 150.600 105 3 26.1000 150.600 5 75 955 9 100 100 9 200 200 0 26.1000 150.600 4 77 960 26.0000 150.700 T 75 960 5 57
1996227N15176 1996 65 WP MM ORSON 1996-08-26 15:00:00 TS 26.1668 150.824 main 1410 1410 PPPP__________ WP191996 26.1075 150.758 102 3 26.1725 150.815 5 75 955 9 100 100 9 200 200 26.2225 150.815 4 77 960 26.1649 150.908 T 75 960 4 59
1996227N15176 1996 65 WP MM ORSON 1996-08-26 18:00:00 TS 26.2500 151.000 75 955 tokyo main 1415 1415 OOOO__________ jtwc_wp WP191996 26.2000 150.900 100 3 26.2000 151.000 5 75 955 9 100 100 9 200 200 0 26.3000 151.000 4 77 960 26.3000 151.100 T 75 960 3 68
1996227N15176 1996 65 WP MM ORSON 1996-08-26 21:00:00 TS 26.2900 151.170 main 1429 1429 PPPP__________ WP191996 26.2650 151.058 97 3 26.2075 151.165 5 72 957 9 90 90 9 190 190 26.3149 151.150 4 72 962 26.3725 151.308 T 72 962 3 80
1996227N15176 1996 65 WP MM ORSON 1996-08-27 00:00:00 TS 26.3000 151.325 70 960 tokyo main 1436 1436 OOOO__________ jtwc_wp WP191996 26.3000 151.200 95 2 26.2000 151.300 5 70 960 9 80 80 9 180 180 0 26.3000 151.300 4 68 965 26.4000 151.500 T 70 965 3 86
1996227N15176 1996 65 WP MM ORSON 1996-08-27 03:00:00 TS 26.3075 151.478 main 1449 1449 PPPP__________ WP191996 26.3075 151.315 92 2 26.2075 151.407 5 70 960 9 80 80 9 180 180 26.3001 151.523 4 68 967 26.4150 151.665 T 70 965 2 90
1996227N15176 1996 65 WP MM ORSON 1996-08-27 06:00:00 TS 26.3000 151.600 70 960 tokyo main 1456 1456 OOOO__________ jtwc_wp WP191996 26.3000 151.400 90 2 26.2000 151.500 5 70 960 9 80 80 9 180 180 0 26.3000 151.700 4 68 970 26.4000 151.800 T 70 965 2 99
1996227N15176 1996 65 WP MM ORSON 1996-08-27 09:00:00 TS 26.2787 151.678 main 1463 1463 PPPP__________ WP191996 26.3075 151.450 90 2 26.1425 151.600 5 70 962 9 80 80 9 180 180 26.3000 151.730 4 68 970 26.3650 151.930 T 70 965 1 114
1996227N15176 1996 65 WP MM ORSON 1996-08-27 12:00:00 TS 26.2500 151.725 70 965 tokyo main 1463 1471 OOOO__________ jtwc_wp WP191996 26.3000 151.500 90 2 26.1000 151.700 5 70 965 9 80 80 9 180 180 0 26.3000 151.700 4 68 970 26.3000 152.000 T 70 965 1 126
1996227N15176 1996 65 WP MM ORSON 1996-08-27 15:00:00 TS 26.2175 151.779 main 1478 1478 PPPP__________ WP191996 26.2425 151.608 90 2 26.1350 151.822 5 70 965 9 80 80 9 180 180 26.3000 151.700 4 66 972 26.1925 151.987 T 70 965 1 124
1996227N15176 1996 65 WP MM ORSON 1996-08-27 18:00:00 TS 26.2000 151.800 70 965 tokyo main 1478 1478 OOOO__________ jtwc_wp WP191996 26.2000 151.700 90 2 26.2000 151.900 5 70 965 9 80 80 9 180 180 0 26.3000 151.700 4 64 975 26.1000 151.900 T 70 965 0 0
1996227N15176 1996 65 WP MM ORSON 1996-08-27 21:00:00 TS 26.2100 151.769 main 1478 1471 PPPP__________ WP191996 26.2350 151.722 87 2 26.2500 151.880 5 67 967 9 80 80 9 180 180 26.2700 151.707 4 64 975 26.0850 151.765 T 67 967 1 299
1996227N15176 1996 65 WP MM ORSON 1996-08-28 00:00:00 TS 26.2500 151.700 65 970 tokyo main 1463 1456 OOOO__________ jtwc_wp WP191996 26.3000 151.700 85 2 26.3000 151.800 5 65 970 9 80 80 9 180 180 0 26.3000 151.700 4 64 975 26.1000 151.600 T 65 970 2 314
1996227N15176 1996 65 WP MM ORSON 1996-08-28 03:00:00 TS 26.3287 151.629 main 1456 1441 PPPP__________ WP191996 26.3575 151.673 80 1 26.3575 151.715 5 62 972 9 70 70 9 180 180 26.5075 151.680 4 64 975 26.0925 151.450 T 65 970 2 314
1996227N15176 1996 65 WP MM ORSON 1996-08-28 06:00:00 TS 26.4000 151.525 60 975 tokyo main 1441 1434 OOOO__________ jtwc_wp WP191996 26.4000 151.600 75 1 26.4000 151.600 4 60 975 9 60 60 9 180 180 0 26.7000 151.600 4 64 975 26.1000 151.300 T 65 970 2 291
1996227N15176 1996 65 WP MM ORSON 1996-08-28 09:00:00 TS 26.4112 151.387 main 1434 1421 PPPP__________ WP191996 26.4075 151.480 75 1 26.4074 151.480 4 60 975 9 60 60 9 180 180 26.6875 151.430 4 61 975 26.1425 151.158 T 65 970 3 270
1996227N15176 1996 65 WP MM ORSON 1996-08-28 12:00:00 TS 26.4000 151.200 60 975 tokyo main 1421 1407 OOOO__________ jtwc_wp WP191996 26.4000 151.300 75 1 26.4000 151.300 4 60 975 9 60 60 9 180 180 0 26.6000 151.200 3 58 975 26.2000 151.000 T 65 970 4 268
1996227N15176 1996 65 WP MM ORSON 1996-08-28 15:00:00 TS 26.3981 150.965 main 1407 1387 PPPP__________ WP191996 26.3924 151.080 75 1 26.4001 151.015 4 60 975 9 60 60 9 180 180 26.5500 150.958 3 58 975 26.2500 150.808 T 62 972 4 270
1996227N15176 1996 65 WP MM ORSON 1996-08-28 18:00:00 TS 26.4000 150.700 60 975 tokyo main 1387 1373 OOOO__________ jtwc_wp WP191996 26.4000 150.800 75 1 26.4000 150.700 4 60 975 9 60 60 9 180 180 0 26.5000 150.700 3 58 975 26.3000 150.600 STS 60 975 5 269
1996227N15176 1996 65 WP MM ORSON 1996-08-28 21:00:00 TS 26.3918 150.445 main 1367 1353 PPPP__________ WP191996 26.4276 150.457 70 1 26.3773 150.457 4 57 977 9 55 55 9 180 180 26.4199 150.457 3 58 977 26.3424 150.407 STS 57 977 5 273
1996227N15176 1996 65 WP MM ORSON 1996-08-29 00:00:00 TS 26.4250 150.175 55 980 tokyo main 1353 1326 OOOO__________ jtwc_wp WP191996 26.5000 150.100 65 1 26.4000 150.200 4 55 980 9 50 50 9 180 180 0 26.4000 150.200 3 58 980 26.4000 150.200 STS 55 980 5 287
1996227N15176 1996 65 WP MM ORSON 1996-08-29 03:00:00 TS 26.5437 149.884 main 1326 1289 PPPP__________ WP191996 26.6424 149.793 60 0 26.5276 149.858 4 52 982 9 9 180 180 26.5199 149.915 3 53 982 26.4849 149.972 STS 52 982 6 297
1996227N15176 1996 65 WP MM ORSON 1996-08-29 06:00:00 TS 26.7000 149.575 50 985 tokyo main 1289 1261 OOOO__________ jtwc_wp WP191996 26.8000 149.500 55 0 26.7000 149.500 4 50 985 0 9 180 180 0 26.7000 149.600 3 48 985 26.6000 149.700 STS 50 985 6 298
1996227N15176 1996 65 WP MM ORSON 1996-08-29 09:00:00 TS 26.8393 149.252 main 1261 1219 PPPP__________ WP191996 26.8999 149.200 55 0 26.8574 149.192 4 50 985 0 9 180 180 26.8575 149.250 3 48 985 26.7425 149.365 STS 50 985 6 295
1996227N15176 1996 65 WP MM ORSON 1996-08-29 12:00:00 TS 26.9750 148.925 50 985 tokyo main 1219 1192 OOOO__________ jtwc_wp WP191996 27.0000 148.900 55 0 27.0000 148.900 4 50 985 0 9 180 180 0 27.0000 148.900 3 48 985 26.9000 149.000 STS 50 985 6 294
1996227N15176 1996 65 WP MM ORSON 1996-08-29 15:00:00 TS 27.0981 148.607 main 1192 1164 PPPP__________ WP191996 27.1424 148.600 55 0 27.0999 148.600 4 47 987 0 9 180 180 27.0999 148.585 3 46 987 27.0500 148.642 STS 50 985 6 294
1996227N15176 1996 65 WP MM ORSON 1996-08-29 18:00:00 TS 27.2250 148.300 45 990 tokyo main 1164 1129 OOOO__________ jtwc_wp WP191996 27.3000 148.300 55 0 27.2000 148.300 3 45 990 0 9 180 180 0 27.2000 148.300 2 44 990 27.2000 148.300 STS 50 985 6 297
1996227N15176 1996 65 WP MM ORSON 1996-08-29 21:00:00 TS 27.3655 148.012 main 1129 1102 PPPP__________ WP191996 27.4499 148.000 50 0 27.3425 147.993 3 45 990 0 9 180 180 27.3273 148.057 2 44 990 27.3423 148.000 STS 50 985 6 300
1996227N15176 1996 65 WP MM ORSON 1996-08-30 00:00:00 TS 27.5250 147.725 45 990 tokyo main 1102 1066 OOOO__________ jtwc_wp WP191996 27.6000 147.700 45 0 27.5000 147.700 3 45 990 0 9 180 180 0 27.5000 147.800 2 44 990 27.5000 147.700 STS 50 985 6 303
1996227N15176 1996 65 WP MM ORSON 1996-08-30 03:00:00 TS 27.7087 147.418 main 1066 1031 PPPP__________ WP191996 27.7499 147.400 45 0 27.6423 147.457 3 45 990 0 9 180 180 27.7501 147.458 2 41 991 27.6925 147.357 STS 47 987 7 304
1996227N15176 1996 65 WP MM ORSON 1996-08-30 06:00:00 TS 27.9000 147.100 45 990 tokyo main 1031 995 OOOO__________ jtwc_wp WP191996 27.9000 147.100 45 0 27.8000 147.200 3 45 990 0 9 180 180 0 28.0000 147.100 2 38 992 27.9000 147.000 TS 45 990 7 303
1996227N15176 1996 65 WP MM ORSON 1996-08-30 09:00:00 TS 28.0768 146.779 main 995 969 PPPP__________ WP191996 28.0424 146.807 50 0 27.9925 146.865 3 45 990 0 9 180 180 28.1648 146.800 2 38 992 28.1075 146.642 TS 45 990 7 301
1996227N15176 1996 65 WP MM ORSON 1996-08-30 12:00:00 TS 28.2500 146.450 45 990 tokyo main 960 929 OOOO__________ jtwc_wp WP191996 28.2000 146.500 55 0 28.2000 146.500 3 45 990 0 9 180 180 0 28.3000 146.500 2 38 992 28.3000 146.300 TS 45 990 7 301
1996227N15176 1996 65 WP MM ORSON 1996-08-30 15:00:00 TS 28.4212 146.118 main 929 894 PPPP__________ WP191996 28.3925 146.157 55 0 28.3999 146.150 3 45 990 0 9 180 180 28.4424 146.165 2 38 992 28.4498 146.000 TS 45 990 7 301
1996227N15176 1996 65 WP MM ORSON 1996-08-30 18:00:00 TS 28.6000 145.775 45 990 tokyo main 894 854 OOOO__________ jtwc_wp WP191996 28.6000 145.800 55 0 28.6000 145.800 3 45 990 0 9 180 180 0 28.6000 145.800 2 38 992 28.6000 145.700 TS 45 990 7 301
1996227N15176 1996 65 WP MM ORSON 1996-08-30 21:00:00 TS 28.7963 145.407 main 854 820 PPPP__________ WP191996 28.7999 145.450 55 0 28.8000 145.442 3 45 990 0 9 180 180 28.7926 145.385 2 38 992 28.7925 145.350 TS 45 990 8 302
1996227N15176 1996 65 WP MM ORSON 1996-08-31 00:00:00 TS 29.0000 145.050 45 990 tokyo main 820 785 OOOO__________ jtwc_wp WP191996 29.0000 145.100 55 0 29.0000 145.100 3 45 990 0 9 180 180 0 29.0000 145.000 2 38 992 29.0000 145.000 TS 45 990 7 304
1996227N15176 1996 65 WP MM ORSON 1996-08-31 03:00:00 TS 29.1999 144.735 main 779 750 PPPP__________ WP191996 29.2000 144.735 60 0 29.1999 144.785 3 47 987 0 9 200 200 29.1998 144.727 2 38 992 29.1999 144.692 TS 47 987 7 307
1996227N15176 1996 65 WP MM ORSON 1996-08-31 06:00:00 TS 29.4000 144.450 50 985 tokyo main 750 715 OOOO__________ jtwc_wp WP191996 29.4000 144.400 65 1 29.4000 144.500 4 50 985 0 9 220 220 0 29.4000 144.500 2 38 992 29.4000 144.400 STS 50 985 6 309
1996227N15176 1996 65 WP MM ORSON 1996-08-31 09:00:00 TS 29.5925 144.172 main 715 681 PPPP__________ WP191996 29.5924 144.127 65 1 29.5924 144.235 4 50 985 0 9 220 220 29.5925 144.242 2 38 992 29.5925 144.085 STS 50 985 6 311
1996227N15176 1996 65 WP MM ORSON 1996-08-31 12:00:00 TS 29.8000 143.925 50 985 tokyo main 681 652 OOOO__________ jtwc_wp WP191996 29.8000 143.900 65 1 29.8000 144.000 4 50 985 0 9 220 220 0 29.8000 144.000 2 38 992 29.8000 143.800 STS 50 985 6 318
1996227N15176 1996 65 WP MM ORSON 1996-08-31 15:00:00 TS 30.0368 143.706 main 652 613 PPPP__________ WP191996 30.0275 143.685 72 1 30.0425 143.785 4 50 985 0 9 220 220 30.0425 143.785 2 38 992 30.0349 143.570 STS 50 985 6 325
1996227N15176 1996 65 WP MM ORSON 1996-08-31 18:00:00 TS 30.3000 143.525 50 985 tokyo main 613 589 OOOO__________ jtwc_wp WP191996 30.3000 143.500 80 1 30.3000 143.600 4 50 985 0 9 220 220 0 30.3000 143.600 2 38 992 30.3000 143.400 STS 50 985 6 331
1996227N15176 1996 65 WP MM ORSON 1996-08-31 21:00:00 TS 30.5650 143.359 main 580 547 PPPP__________ WP191996 30.6425 143.320 80 1 30.5275 143.427 4 50 985 0 9 230 230 30.5200 143.427 2 38 992 30.5700 143.263 STS 50 985 6 338
1996227N15176 1996 65 WP MM ORSON 1996-09-01 00:00:00 TS 30.8750 143.250 50 985 tokyo main 547 514 OOOO__________ jtwc_wp WP191996 31.0000 143.200 80 1 30.8000 143.300 4 50 985 0 9 240 240 0 30.8000 143.300 2 38 992 30.9000 143.200 STS 50 985 7 346
1996227N15176 1996 65 WP MM ORSON 1996-09-01 03:00:00 TS 31.2430 143.165 main 514 477 PPPP__________ WP191996 31.2773 143.126 80 1 31.1548 143.176 4 50 985 0 9 240 240 31.2123 143.168 2 38 992 31.3274 143.190 STS 50 985 8 359
1996227N15176 1996 65 WP MM ORSON 1996-09-01 06:00:00 TS 31.6750 143.225 50 985 tokyo main 468 448 OOOO__________ jtwc_wp WP191996 31.6000 143.200 80 1 31.6000 143.200 4 50 985 0 9 240 240 0 31.7000 143.200 2 38 992 31.8000 143.300 STS 50 985 10 18
1996227N15176 1996 65 WP MM ORSON 1996-09-01 09:00:00 TS 32.1545 143.513 main 440 426 PPPP__________ WP191996 32.0701 143.482 80 1 32.1201 143.482 4 47 987 0 9 240 240 32.1928 143.532 2 38 992 32.2351 143.555 STS 47 987 12 31
1996227N15176 1996 65 WP MM ORSON 1996-09-01 12:00:00 TS 32.6750 143.925 45 990 tokyo main 425 417 OOOO__________ jtwc_wp WP191996 32.6000 143.900 80 1 32.7000 143.900 3 45 990 0 9 240 240 0 32.7000 144.000 2 38 992 32.7000 143.900 TS 45 990 12 33
1996227N15176 1996 65 WP MM ORSON 1996-09-01 15:00:00 TS 33.1879 144.305 main 417 409 PPPP__________ WP191996 33.0924 144.328 77 1 33.2849 144.286 3 45 990 0 9 240 240 33.1623 144.394 2 38 992 33.2122 144.214 TS 45 990 13 32
1996227N15176 1996 65 WP MM ORSON 1996-09-01 18:00:00 TS 33.7500 144.725 45 990 tokyo main 405 405 OOOO__________ jtwc_wp WP191996 33.6000 144.800 75 1 33.9000 144.700 3 45 990 0 9 240 240 0 33.7000 144.800 2 38 992 33.8000 144.600 TS 45 990 14 31
1996227N15176 1996 65 WP MM ORSON 1996-09-01 21:00:00 TS 34.3727 145.167 main 416 412 PPPP__________ WP191996 34.1046 145.272 72 1 34.5193 145.100 3 45 991 0 9 240 240 34.4045 145.206 2 38 992 34.4622 145.091 TS 45 990 16 31
1996227N15176 1996 65 WP MM ORSON 1996-09-02 00:00:00 TS 35.0750 145.700 45 992 tokyo main 439 439 OOOO__________ jtwc_wp WP191996 34.7000 145.800 70 1 35.2000 145.600 3 45 992 0 9 240 240 0 35.2000 145.700 2 38 992 35.2000 145.700 TS 45 990 18 33
1996227N15176 1996 65 WP MM ORSON 1996-09-02 03:00:00 TS 35.8368 146.339 main 486 486 PPPP__________ WP191996 35.4244 146.392 67 1 35.9694 146.262 3 45 992 0 9 240 240 35.9841 146.312 2 38 992 35.9695 146.392 TS 45 990 20 36
1996227N15176 1996 65 WP MM ORSON 1996-09-02 06:00:00 TS 36.6750 147.125 45 992 tokyo main 523 523 OOOO__________ jtwc_wp WP191996 36.3000 147.100 65 1 36.8000 147.100 3 45 992 0 9 240 240 0 36.8000 147.100 2 38 992 36.8000 147.200 TS 45 990 22 38
1996227N15176 1996 65 WP MM ORSON 1996-09-02 09:00:00 TS 37.5926 148.046 main 553 553 PPPP__________ WP191996 37.3488 147.911 62 0 37.6573 148.091 3 45 992 0 9 240 240 37.6574 148.083 2 38 992 37.7069 148.098 TS 45 990 24 41
1996227N15176 1996 65 WP MM ORSON 1996-09-02 12:00:00 TS 38.5000 149.100 45 992 tokyo main 603 584 OOOO__________ jtwc_wp WP191996 38.4000 148.900 60 0 38.5000 149.200 3 45 992 0 9 240 240 0 38.5000 149.200 2 38 992 38.6000 149.100 TS 45 990 24 45
1996227N15176 1996 65 WP MM ORSON 1996-09-02 15:00:00 TS 39.3185 150.246 main 584 581 PPPP__________ WP191996 39.2756 150.113 55 0 39.3024 150.358 3 45 992 0 9 240 240 39.3024 150.358 2 38 992 39.3939 150.157 TS 42 991 24 50
1996227N15176 1996 65 WP MM ORSON 1996-09-02 18:00:00 TS 40.0250 151.425 45 992 tokyo main 604 597 OOOO__________ jtwc_wp WP191996 40.0000 151.400 50 0 40.0000 151.500 3 45 992 0 9 240 240 0 40.0000 151.500 2 38 992 40.1000 151.300 TS 40 992 21 53
1996227N15176 1996 65 WP MM ORSON 1996-09-02 21:00:00 TS 40.5949 152.479 main 600 586 PPPP__________ WP191996 40.5844 152.525 47 0 40.5260 152.446 3 45 992 0 9 250 250 40.5337 152.453 2 38 992 40.7355 152.493 TS 37 993 20 57
1996227N15176 1996 65 WP MM ORSON 1996-09-03 00:00:00 TS 41.0867 153.613 45 992 tokyo main 590 589 OOOO__________ jtwc_wp WP191996 41.1000 153.700 45 0 41.0000 153.500 3 45 992 0 9 260 260 0 41.0000 153.500 2 38 992 41.3000 153.800 TS 35 994 22 62
1996227N15176 1996 65 WP MM ORSON 1996-09-03 03:00:00 TS 41.6141 154.997 main 614 614 PPPP__________ WP191996 41.6936 155.074 45 0 41.5479 154.902 3 45 992 0 9 260 260 41.4992 154.889 2 38 992 41.8172 155.252 TS 35 994 24 65
1996227N15176 1996 65 WP MM ORSON 1996-09-03 06:00:00 TS 42.1154 156.585 45 992 tokyo main 662 662 OOOO__________ jtwc_wp WP191996 42.2000 156.600 45 0 42.1000 156.600 3 45 992 0 9 260 260 0 42.0000 156.500 2 38 992 42.3000 156.800 TS 35 994 26 69
1996227N15176 1996 65 WP MM ORSON 1996-09-03 09:00:00 TS 42.5383 158.275 main 742 742 PPP___________ WP191996 42.5085 158.216 45 0 42.6132 158.505 3 992 0 9 42.4932 158.105 2 38 992 TS 28 73
1996227N15176 1996 65 WP MM ORSON 1996-09-03 12:00:00 ET 42.9273 160.182 992 tokyo main 851 851 OOO___________ jtwc_wp WP191996 42.7000 159.900 45 0 43.1000 160.600 6 992 0 0 0 43.0000 160.000 9 38 992 30 75
1996227N15176 1996 65 WP MM ORSON 1996-09-03 15:00:00 ET 43.2925 162.182 main 902 902 PPP___________ WP191996 42.8517 161.521 42 0 43.6218 162.759 6 991 0 0 43.5157 162.352 9 38 992 30 78
1996227N15176 1996 65 WP MM ORSON 1996-09-03 18:00:00 ET 43.5556 164.244 990 tokyo main 964 964 OOO___________ jtwc_wp WP191996 43.0000 163.300 40 0 44.0000 165.000 6 990 0 0 0 44.0000 165.000 9 38 992 31 84
1996227N15176 1996 65 WP MM ORSON 1996-09-03 21:00:00 ET 43.6155 166.391 main 1079 1079 PP____________ WP191996 43.1994 165.417 40 0 44.0317 167.365 6 987 0 0 9 31 87
1996227N15176 1996 65 WP MM ORSON 1996-09-04 00:00:00 ET 43.7000 168.600 984 tokyo main 1183 1183 OO____________ jtwc_wp WP191996 43.4000 167.700 40 0 44.0000 169.500 6 984 0 0 0 30 85
1996227N15176 1996 65 WP MM ORSON 1996-09-04 03:00:00 ET 43.8807 170.472 main 1265 1265 PP____________ WP191996 43.5610 169.944 40 0 44.2004 171.000 6 985 0 0 27 82
1996227N15176 1996 65 WP MM ORSON 1996-09-04 06:00:00 ET 44.1000 172.350 986 tokyo main 1341 1341 OO____________ jtwc_wp WP191996 43.7000 172.200 40 0 44.5000 172.500 6 986 0 0 0 29 84
1996227N15176 1996 65 WP MM ORSON 1996-09-04 09:00:00 ET 44.2127 174.535 main 1439 1409 PP____________ WP191996 43.7881 174.453 40 0 44.6372 174.617 6 987 0 0 32 84
1996227N15176 1996 65 WP MM ORSON 1996-09-04 12:00:00 ET 44.4500 176.850 988 tokyo main 1395 1242 OO____________ jtwc_wp WP191996 43.9000 176.700 40 0 45.0000 177.000 6 988 0 0 0 34 77
1996227N15176 1996 65 WP MM ORSON 1996-09-04 15:00:00 ET 44.9728 179.200 main 1228 1064 PP____________ WP191996 44.0863 178.945 40 0 45.8592 179.455 6 988 0 0 36 70
1996227N15176 1996 65 EP CP ORSON 1996-09-04 18:00:00 ET 45.6500 181.600 main 1051 OO____________ jtwc_wp WP191996 44.3000 -178.800 40 0 47.0000 182.000 6 988 0 0 0 36 68

Digital Typhoon Data and Search

About IBTrACS Database

This database is a web-friendly format of International Best Track Archive for Climate Stewardship (IBTrACS), a global best track data archive curated by NOAA dating back to 1842.

Updated: 2021-12-01